sensor_id;sensor_type;location;lat;lon;timestamp;temperature;humidity
12700;DHT22;6414;49.570;6.060;2023-08-20T00:02:23;18.50;99.90
12700;DHT22;6414;49.570;6.060;2023-08-20T00:05:09;18.40;99.90
12700;DHT22;6414;49.570;6.060;2023-08-20T00:07:54;18.40;99.90
12700;DHT22;6414;49.570;6.060;2023-08-20T00:10:41;18.40;99.90
12700;DHT22;6414;49.570;6.060;2023-08-20T00:13:27;18.40;99.90
12700;DHT22;6414;49.570;6.060;2023-08-20T00:16:13;18.40;99.90
12700;DHT22;6414;49.570;6.060;2023-08-20T00:19:01;18.40;99.90
12700;DHT22;6414;49.570;6.060;2023-08-20T00:21:46;18.40;99.90
12700;DHT22;6414;49.570;6.060;2023-08-20T00:24:32;18.30;99.90
12700;DHT22;6414;49.570;6.060;2023-08-20T00:27:19;18.00;99.90
12700;DHT22;6414;49.570;6.060;2023-08-20T00:30:05;18.00;99.90
12700;DHT22;6414;49.570;6.060;2023-08-20T00:32:51;18.00;99.90
12700;DHT22;6414;49.570;6.060;2023-08-20T00:35:38;17.90;99.90
12700;DHT22;6414;49.570;6.060;2023-08-20T00:38:24;17.70;99.90
12700;DHT22;6414;49.570;6.060;2023-08-20T00:41:10;17.70;99.90
12700;DHT22;6414;49.570;6.060;2023-08-20T00:43:56;17.60;99.90
12700;DHT22;6414;49.570;6.060;2023-08-20T00:46:42;17.70;99.90
12700;DHT22;6414;49.570;6.060;2023-08-20T00:49:29;17.70;99.90
12700;DHT22;6414;49.570;6.060;2023-08-20T00:52:18;17.70;99.90
12700;DHT22;6414;49.570;6.060;2023-08-20T00:55:10;17.50;99.90
12700;DHT22;6414;49.570;6.060;2023-08-20T00:57:52;17.50;99.90
12700;DHT22;6414;49.570;6.060;2023-08-20T01:00:39;17.60;99.90
12700;DHT22;6414;49.570;6.060;2023-08-20T01:03:26;17.70;99.90
12700;DHT22;6414;49.570;6.060;2023-08-20T01:09:01;17.90;99.90
12700;DHT22;6414;49.570;6.060;2023-08-20T01:11:45;18.00;99.90
12700;DHT22;6414;49.570;6.060;2023-08-20T01:14:31;17.90;99.90
12700;DHT22;6414;49.570;6.060;2023-08-20T01:17:18;17.90;99.90
12700;DHT22;6414;49.570;6.060;2023-08-20T01:20:04;17.80;99.90
12700;DHT22;6414;49.570;6.060;2023-08-20T01:28:58;17.70;99.90
12700;DHT22;6414;49.570;6.060;2023-08-20T01:31:44;17.60;99.90
12700;DHT22;6414;49.570;6.060;2023-08-20T01:34:30;17.60;99.90
12700;DHT22;6414;49.570;6.060;2023-08-20T01:37:17;17.60;99.90
12700;DHT22;6414;49.570;6.060;2023-08-20T01:40:03;17.60;99.90
12700;DHT22;6414;49.570;6.060;2023-08-20T01:42:49;17.60;99.90
12700;DHT22;6414;49.570;6.060;2023-08-20T01:45:35;17.70;99.90
12700;DHT22;6414;49.570;6.060;2023-08-20T01:48:21;17.80;99.90
12700;DHT22;6414;49.570;6.060;2023-08-20T01:51:08;17.70;99.90
12700;DHT22;6414;49.570;6.060;2023-08-20T01:53:54;17.70;99.90
12700;DHT22;6414;49.570;6.060;2023-08-20T01:56:40;17.70;99.90
12700;DHT22;6414;49.570;6.060;2023-08-20T01:59:26;17.70;99.90
12700;DHT22;6414;49.570;6.060;2023-08-20T02:02:12;17.70;99.90
12700;DHT22;6414;49.570;6.060;2023-08-20T02:04:58;17.80;99.90
12700;DHT22;6414;49.570;6.060;2023-08-20T02:07:45;17.80;99.90
12700;DHT22;6414;49.570;6.060;2023-08-20T02:10:31;18.00;99.90
12700;DHT22;6414;49.570;6.060;2023-08-20T02:13:17;17.90;99.90
12700;DHT22;6414;49.570;6.060;2023-08-20T02:16:03;17.90;99.90
12700;DHT22;6414;49.570;6.060;2023-08-20T02:18:50;17.90;99.90
12700;DHT22;6414;49.570;6.060;2023-08-20T02:21:36;17.90;99.90
12700;DHT22;6414;49.570;6.060;2023-08-20T02:24:22;17.90;99.90
12700;DHT22;6414;49.570;6.060;2023-08-20T02:27:08;17.90;99.90
12700;DHT22;6414;49.570;6.060;2023-08-20T02:29:54;17.80;99.90
12700;DHT22;6414;49.570;6.060;2023-08-20T02:32:40;17.80;99.90
12700;DHT22;6414;49.570;6.060;2023-08-20T02:35:27;17.60;99.90
12700;DHT22;6414;49.570;6.060;2023-08-20T02:38:13;17.70;99.90
12700;DHT22;6414;49.570;6.060;2023-08-20T02:40:59;17.60;99.90
12700;DHT22;6414;49.570;6.060;2023-08-20T02:43:45;17.50;99.90
12700;DHT22;6414;49.570;6.060;2023-08-20T02:46:32;17.40;99.90
12700;DHT22;6414;49.570;6.060;2023-08-20T02:49:19;17.40;99.90
12700;DHT22;6414;49.570;6.060;2023-08-20T02:52:05;17.40;99.90
12700;DHT22;6414;49.570;6.060;2023-08-20T02:54:51;17.40;99.90
12700;DHT22;6414;49.570;6.060;2023-08-20T02:57:38;17.30;99.90
12700;DHT22;6414;49.570;6.060;2023-08-20T03:00:24;17.30;99.90
12700;DHT22;6414;49.570;6.060;2023-08-20T03:03:11;17.30;99.90
12700;DHT22;6414;49.570;6.060;2023-08-20T03:05:56;17.40;99.90
12700;DHT22;6414;49.570;6.060;2023-08-20T03:08:42;17.40;99.90
12700;DHT22;6414;49.570;6.060;2023-08-20T03:11:29;17.60;99.90
12700;DHT22;6414;49.570;6.060;2023-08-20T03:14:16;17.50;99.90
12700;DHT22;6414;49.570;6.060;2023-08-20T03:17:01;17.50;99.90
12700;DHT22;6414;49.570;6.060;2023-08-20T03:19:54;17.50;99.90
12700;DHT22;6414;49.570;6.060;2023-08-20T03:22:39;17.50;99.90
12700;DHT22;6414;49.570;6.060;2023-08-20T03:25:25;17.40;99.90
12700;DHT22;6414;49.570;6.060;2023-08-20T03:28:11;17.40;99.90
12700;DHT22;6414;49.570;6.060;2023-08-20T03:31:01;17.20;99.90
12700;DHT22;6414;49.570;6.060;2023-08-20T03:33:48;17.10;99.90
12700;DHT22;6414;49.570;6.060;2023-08-20T03:36:34;17.20;99.90
12700;DHT22;6414;49.570;6.060;2023-08-20T03:39:20;17.30;99.90
12700;DHT22;6414;49.570;6.060;2023-08-20T03:42:06;17.40;99.90
12700;DHT22;6414;49.570;6.060;2023-08-20T03:44:52;17.40;99.90
12700;DHT22;6414;49.570;6.060;2023-08-20T03:47:39;17.50;99.90
12700;DHT22;6414;49.570;6.060;2023-08-20T03:50:25;17.50;99.90
12700;DHT22;6414;49.570;6.060;2023-08-20T03:53:11;17.50;99.90
12700;DHT22;6414;49.570;6.060;2023-08-20T03:55:57;17.50;99.90
12700;DHT22;6414;49.570;6.060;2023-08-20T03:58:43;17.50;99.90
12700;DHT22;6414;49.570;6.060;2023-08-20T04:01:30;17.40;99.90
12700;DHT22;6414;49.570;6.060;2023-08-20T04:04:16;17.40;99.90
12700;DHT22;6414;49.570;6.060;2023-08-20T04:07:02;17.40;99.90
12700;DHT22;6414;49.570;6.060;2023-08-20T04:09:48;17.40;99.90
12700;DHT22;6414;49.570;6.060;2023-08-20T04:12:34;17.40;99.90
12700;DHT22;6414;49.570;6.060;2023-08-20T04:15:20;17.30;99.90
12700;DHT22;6414;49.570;6.060;2023-08-20T04:18:07;17.30;99.90
12700;DHT22;6414;49.570;6.060;2023-08-20T04:20:54;17.30;99.90
12700;DHT22;6414;49.570;6.060;2023-08-20T04:23:40;17.30;99.90
12700;DHT22;6414;49.570;6.060;2023-08-20T04:26:25;17.10;99.90
12700;DHT22;6414;49.570;6.060;2023-08-20T04:29:11;17.00;99.90
12700;DHT22;6414;49.570;6.060;2023-08-20T04:31:58;17.00;99.90
12700;DHT22;6414;49.570;6.060;2023-08-20T04:34:44;16.80;99.90
12700;DHT22;6414;49.570;6.060;2023-08-20T04:37:31;16.70;99.90
12700;DHT22;6414;49.570;6.060;2023-08-20T04:40:17;16.70;99.90
12700;DHT22;6414;49.570;6.060;2023-08-20T04:43:03;16.80;99.90
12700;DHT22;6414;49.570;6.060;2023-08-20T04:45:49;16.80;99.90
12700;DHT22;6414;49.570;6.060;2023-08-20T04:48:35;17.00;99.90
12700;DHT22;6414;49.570;6.060;2023-08-20T04:51:21;17.00;99.90
12700;DHT22;6414;49.570;6.060;2023-08-20T04:54:07;17.00;99.90
12700;DHT22;6414;49.570;6.060;2023-08-20T04:56:53;16.90;99.90
12700;DHT22;6414;49.570;6.060;2023-08-20T04:59:39;16.70;99.90
12700;DHT22;6414;49.570;6.060;2023-08-20T05:02:26;17.10;99.90
12700;DHT22;6414;49.570;6.060;2023-08-20T05:05:12;17.10;99.90
12700;DHT22;6414;49.570;6.060;2023-08-20T05:07:58;17.10;99.90
12700;DHT22;6414;49.570;6.060;2023-08-20T05:10:44;17.00;99.90
12700;DHT22;6414;49.570;6.060;2023-08-20T05:13:31;17.20;99.90
12700;DHT22;6414;49.570;6.060;2023-08-20T05:16:17;17.20;99.90
12700;DHT22;6414;49.570;6.060;2023-08-20T05:19:03;17.30;99.90
12700;DHT22;6414;49.570;6.060;2023-08-20T05:21:49;17.50;99.90
12700;DHT22;6414;49.570;6.060;2023-08-20T05:24:35;17.50;99.90
12700;DHT22;6414;49.570;6.060;2023-08-20T05:27:21;17.60;99.90
12700;DHT22;6414;49.570;6.060;2023-08-20T05:30:08;17.60;99.90
12700;DHT22;6414;49.570;6.060;2023-08-20T05:32:53;17.70;99.90
12700;DHT22;6414;49.570;6.060;2023-08-20T05:35:40;17.80;99.90
12700;DHT22;6414;49.570;6.060;2023-08-20T05:38:26;17.80;99.90
12700;DHT22;6414;49.570;6.060;2023-08-20T05:41:12;17.90;99.90
12700;DHT22;6414;49.570;6.060;2023-08-20T05:43:58;18.00;99.90
12700;DHT22;6414;49.570;6.060;2023-08-20T05:46:44;18.00;99.90
12700;DHT22;6414;49.570;6.060;2023-08-20T05:49:30;18.10;99.90
12700;DHT22;6414;49.570;6.060;2023-08-20T05:52:17;18.20;99.90
12700;DHT22;6414;49.570;6.060;2023-08-20T05:55:04;18.20;99.90
12700;DHT22;6414;49.570;6.060;2023-08-20T05:57:49;18.30;99.90
12700;DHT22;6414;49.570;6.060;2023-08-20T06:00:36;18.40;99.90
12700;DHT22;6414;49.570;6.060;2023-08-20T06:03:22;18.40;99.90
12700;DHT22;6414;49.570;6.060;2023-08-20T06:06:08;18.40;99.90
12700;DHT22;6414;49.570;6.060;2023-08-20T06:08:54;18.50;99.90
12700;DHT22;6414;49.570;6.060;2023-08-20T06:11:41;18.60;99.90
12700;DHT22;6414;49.570;6.060;2023-08-20T06:14:27;18.60;99.90
12700;DHT22;6414;49.570;6.060;2023-08-20T06:17:13;18.60;99.90
12700;DHT22;6414;49.570;6.060;2023-08-20T06:20:00;18.70;99.90
12700;DHT22;6414;49.570;6.060;2023-08-20T06:22:47;18.70;99.90
12700;DHT22;6414;49.570;6.060;2023-08-20T06:25:33;18.80;99.90
12700;DHT22;6414;49.570;6.060;2023-08-20T06:28:21;18.80;99.90
12700;DHT22;6414;49.570;6.060;2023-08-20T06:31:08;18.90;99.90
12700;DHT22;6414;49.570;6.060;2023-08-20T06:33:54;18.90;99.90
12700;DHT22;6414;49.570;6.060;2023-08-20T06:36:40;18.90;99.90
12700;DHT22;6414;49.570;6.060;2023-08-20T06:39:28;18.80;99.90
12700;DHT22;6414;49.570;6.060;2023-08-20T06:42:14;18.90;99.90
12700;DHT22;6414;49.570;6.060;2023-08-20T06:45:00;18.90;99.90
12700;DHT22;6414;49.570;6.060;2023-08-20T06:47:45;19.10;99.90
12700;DHT22;6414;49.570;6.060;2023-08-20T06:50:31;19.10;99.90
12700;DHT22;6414;49.570;6.060;2023-08-20T06:53:18;19.20;99.90
12700;DHT22;6414;49.570;6.060;2023-08-20T06:56:04;19.30;99.90
12700;DHT22;6414;49.570;6.060;2023-08-20T06:58:50;19.40;99.90
12700;DHT22;6414;49.570;6.060;2023-08-20T07:01:36;19.50;99.90
12700;DHT22;6414;49.570;6.060;2023-08-20T07:04:22;19.70;99.90
12700;DHT22;6414;49.570;6.060;2023-08-20T07:07:09;19.70;99.90
12700;DHT22;6414;49.570;6.060;2023-08-20T07:09:55;19.70;99.90
12700;DHT22;6414;49.570;6.060;2023-08-20T07:12:41;19.80;99.90
12700;DHT22;6414;49.570;6.060;2023-08-20T07:15:28;19.90;99.90
12700;DHT22;6414;49.570;6.060;2023-08-20T07:18:14;19.90;99.90
12700;DHT22;6414;49.570;6.060;2023-08-20T07:21:00;20.10;99.90
12700;DHT22;6414;49.570;6.060;2023-08-20T07:23:47;20.10;99.90
12700;DHT22;6414;49.570;6.060;2023-08-20T07:26:33;20.10;99.90
12700;DHT22;6414;49.570;6.060;2023-08-20T07:29:19;20.20;99.90
12700;DHT22;6414;49.570;6.060;2023-08-20T07:32:04;20.30;99.90
12700;DHT22;6414;49.570;6.060;2023-08-20T07:34:50;20.40;99.90
12700;DHT22;6414;49.570;6.060;2023-08-20T07:37:36;20.50;99.90
12700;DHT22;6414;49.570;6.060;2023-08-20T07:40:23;20.60;99.90
12700;DHT22;6414;49.570;6.060;2023-08-20T07:43:09;20.60;99.90
12700;DHT22;6414;49.570;6.060;2023-08-20T07:45:55;20.70;99.90
12700;DHT22;6414;49.570;6.060;2023-08-20T07:48:42;20.90;99.90
12700;DHT22;6414;49.570;6.060;2023-08-20T07:51:27;20.90;99.90
12700;DHT22;6414;49.570;6.060;2023-08-20T07:54:14;21.10;99.90
12700;DHT22;6414;49.570;6.060;2023-08-20T07:56:59;21.10;99.90
12700;DHT22;6414;49.570;6.060;2023-08-20T07:59:45;21.40;99.90
12700;DHT22;6414;49.570;6.060;2023-08-20T08:02:31;21.50;99.90
12700;DHT22;6414;49.570;6.060;2023-08-20T08:05:18;21.90;99.90
12700;DHT22;6414;49.570;6.060;2023-08-20T08:08:04;21.90;99.90
12700;DHT22;6414;49.570;6.060;2023-08-20T08:10:51;21.90;99.90
12700;DHT22;6414;49.570;6.060;2023-08-20T08:13:37;21.90;99.90
12700;DHT22;6414;49.570;6.060;2023-08-20T08:16:23;22.00;99.90
12700;DHT22;6414;49.570;6.060;2023-08-20T08:19:09;22.10;99.90
12700;DHT22;6414;49.570;6.060;2023-08-20T08:21:56;22.30;99.90
12700;DHT22;6414;49.570;6.060;2023-08-20T08:24:41;22.30;99.90
12700;DHT22;6414;49.570;6.060;2023-08-20T08:27:28;22.40;99.90
12700;DHT22;6414;49.570;6.060;2023-08-20T08:30:14;22.60;99.90
12700;DHT22;6414;49.570;6.060;2023-08-20T08:33:00;22.60;99.90
12700;DHT22;6414;49.570;6.060;2023-08-20T08:35:46;22.80;99.90
12700;DHT22;6414;49.570;6.060;2023-08-20T08:38:32;22.80;99.90
12700;DHT22;6414;49.570;6.060;2023-08-20T08:41:21;22.70;99.90
12700;DHT22;6414;49.570;6.060;2023-08-20T08:44:06;22.90;99.90
12700;DHT22;6414;49.570;6.060;2023-08-20T08:46:51;23.10;99.90
12700;DHT22;6414;49.570;6.060;2023-08-20T08:49:36;23.30;99.90
12700;DHT22;6414;49.570;6.060;2023-08-20T08:52:22;23.40;99.90
12700;DHT22;6414;49.570;6.060;2023-08-20T08:55:09;23.40;99.90
12700;DHT22;6414;49.570;6.060;2023-08-20T08:57:55;23.30;99.90
12700;DHT22;6414;49.570;6.060;2023-08-20T09:00:41;23.40;99.90
12700;DHT22;6414;49.570;6.060;2023-08-20T09:03:27;23.60;99.90
12700;DHT22;6414;49.570;6.060;2023-08-20T09:06:13;23.70;99.90
12700;DHT22;6414;49.570;6.060;2023-08-20T09:09:04;23.80;99.90
12700;DHT22;6414;49.570;6.060;2023-08-20T09:11:49;23.80;99.90
12700;DHT22;6414;49.570;6.060;2023-08-20T09:14:36;24.00;99.90
12700;DHT22;6414;49.570;6.060;2023-08-20T09:17:21;24.40;99.90
12700;DHT22;6414;49.570;6.060;2023-08-20T09:20:08;24.50;99.90
12700;DHT22;6414;49.570;6.060;2023-08-20T09:22:53;24.80;99.90
12700;DHT22;6414;49.570;6.060;2023-08-20T09:25:40;25.10;99.90
12700;DHT22;6414;49.570;6.060;2023-08-20T09:28:26;25.60;99.90
12700;DHT22;6414;49.570;6.060;2023-08-20T09:31:12;26.00;99.90
12700;DHT22;6414;49.570;6.060;2023-08-20T09:33:58;26.50;99.90
12700;DHT22;6414;49.570;6.060;2023-08-20T09:36:44;26.60;99.90
12700;DHT22;6414;49.570;6.060;2023-08-20T09:39:30;26.50;99.90
12700;DHT22;6414;49.570;6.060;2023-08-20T09:42:16;26.70;99.90
12700;DHT22;6414;49.570;6.060;2023-08-20T09:45:02;26.90;99.90
12700;DHT22;6414;49.570;6.060;2023-08-20T09:47:49;26.90;99.90
12700;DHT22;6414;49.570;6.060;2023-08-20T09:50:35;27.20;99.90
12700;DHT22;6414;49.570;6.060;2023-08-20T09:53:34;27.00;99.90
12700;DHT22;6414;49.570;6.060;2023-08-20T09:56:22;27.10;99.90
12700;DHT22;6414;49.570;6.060;2023-08-20T09:59:07;27.30;99.90
12700;DHT22;6414;49.570;6.060;2023-08-20T10:01:53;27.80;99.90
12700;DHT22;6414;49.570;6.060;2023-08-20T10:04:40;27.80;99.90
12700;DHT22;6414;49.570;6.060;2023-08-20T10:07:26;28.00;99.90
12700;DHT22;6414;49.570;6.060;2023-08-20T10:10:12;28.20;99.90
12700;DHT22;6414;49.570;6.060;2023-08-20T10:12:58;27.90;99.90
12700;DHT22;6414;49.570;6.060;2023-08-20T10:15:45;28.00;99.90
12700;DHT22;6414;49.570;6.060;2023-08-20T10:18:31;28.20;99.90
12700;DHT22;6414;49.570;6.060;2023-08-20T10:21:17;27.80;99.90
12700;DHT22;6414;49.570;6.060;2023-08-20T10:24:04;27.70;99.90
12700;DHT22;6414;49.570;6.060;2023-08-20T10:26:49;27.60;99.90
12700;DHT22;6414;49.570;6.060;2023-08-20T10:29:41;27.90;99.90
12700;DHT22;6414;49.570;6.060;2023-08-20T10:32:46;28.10;99.90
12700;DHT22;6414;49.570;6.060;2023-08-20T10:38:26;28.40;99.90
12700;DHT22;6414;49.570;6.060;2023-08-20T10:41:12;28.10;99.90
12700;DHT22;6414;49.570;6.060;2023-08-20T10:43:59;28.20;99.90
12700;DHT22;6414;49.570;6.060;2023-08-20T10:46:51;27.80;99.90
12700;DHT22;6414;49.570;6.060;2023-08-20T10:49:37;27.20;99.90
12700;DHT22;6414;49.570;6.060;2023-08-20T10:52:23;27.20;99.90
12700;DHT22;6414;49.570;6.060;2023-08-20T10:55:09;27.30;99.90
12700;DHT22;6414;49.570;6.060;2023-08-20T10:57:57;27.10;99.90
12700;DHT22;6414;49.570;6.060;2023-08-20T11:00:43;27.10;99.90
12700;DHT22;6414;49.570;6.060;2023-08-20T11:03:29;26.80;99.90
12700;DHT22;6414;49.570;6.060;2023-08-20T11:06:16;26.80;99.90
12700;DHT22;6414;49.570;6.060;2023-08-20T11:09:01;26.70;99.90
12700;DHT22;6414;49.570;6.060;2023-08-20T11:11:47;26.90;99.90
12700;DHT22;6414;49.570;6.060;2023-08-20T11:14:34;26.90;99.90
12700;DHT22;6414;49.570;6.060;2023-08-20T11:17:20;27.00;99.90
12700;DHT22;6414;49.570;6.060;2023-08-20T11:20:06;27.10;99.90
12700;DHT22;6414;49.570;6.060;2023-08-20T11:22:52;27.00;99.90
12700;DHT22;6414;49.570;6.060;2023-08-20T11:25:42;26.80;99.90
12700;DHT22;6414;49.570;6.060;2023-08-20T11:28:28;26.80;99.90
12700;DHT22;6414;49.570;6.060;2023-08-20T11:31:14;26.80;99.90
12700;DHT22;6414;49.570;6.060;2023-08-20T11:34:01;26.60;99.90
12700;DHT22;6414;49.570;6.060;2023-08-20T11:36:46;26.50;99.90
12700;DHT22;6414;49.570;6.060;2023-08-20T11:39:33;26.30;99.90
12700;DHT22;6414;49.570;6.060;2023-08-20T11:42:20;26.30;99.90
12700;DHT22;6414;49.570;6.060;2023-08-20T11:45:05;26.50;99.90
12700;DHT22;6414;49.570;6.060;2023-08-20T11:47:55;26.60;99.90
12700;DHT22;6414;49.570;6.060;2023-08-20T11:50:38;26.60;99.90
12700;DHT22;6414;49.570;6.060;2023-08-20T11:53:24;26.70;99.90
12700;DHT22;6414;49.570;6.060;2023-08-20T11:56:13;27.10;99.90
12700;DHT22;6414;49.570;6.060;2023-08-20T11:59:01;27.10;99.90
12700;DHT22;6414;49.570;6.060;2023-08-20T12:01:58;27.10;99.90
12700;DHT22;6414;49.570;6.060;2023-08-20T12:04:43;27.10;99.90
12700;DHT22;6414;49.570;6.060;2023-08-20T12:07:30;27.00;99.90
12700;DHT22;6414;49.570;6.060;2023-08-20T12:10:20;27.00;99.90
12700;DHT22;6414;49.570;6.060;2023-08-20T12:13:06;26.80;99.90
12700;DHT22;6414;49.570;6.060;2023-08-20T12:15:52;26.80;99.90
12700;DHT22;6414;49.570;6.060;2023-08-20T12:18:39;26.70;99.90
12700;DHT22;6414;49.570;6.060;2023-08-20T12:21:25;26.70;99.90
12700;DHT22;6414;49.570;6.060;2023-08-20T12:24:11;26.70;99.90
12700;DHT22;6414;49.570;6.060;2023-08-20T12:26:57;26.70;99.90
12700;DHT22;6414;49.570;6.060;2023-08-20T12:29:43;26.90;99.90
12700;DHT22;6414;49.570;6.060;2023-08-20T12:32:30;26.80;99.90
12700;DHT22;6414;49.570;6.060;2023-08-20T12:35:16;26.80;99.90
12700;DHT22;6414;49.570;6.060;2023-08-20T12:38:02;26.80;99.90
12700;DHT22;6414;49.570;6.060;2023-08-20T12:40:48;26.80;99.90
12700;DHT22;6414;49.570;6.060;2023-08-20T12:43:34;26.60;99.90
12700;DHT22;6414;49.570;6.060;2023-08-20T12:46:20;26.80;99.90
12700;DHT22;6414;49.570;6.060;2023-08-20T12:49:06;26.70;99.90
12700;DHT22;6414;49.570;6.060;2023-08-20T12:51:52;26.80;99.90
12700;DHT22;6414;49.570;6.060;2023-08-20T12:54:38;26.90;99.90
12700;DHT22;6414;49.570;6.060;2023-08-20T12:57:25;26.90;99.90
12700;DHT22;6414;49.570;6.060;2023-08-20T13:00:11;26.90;99.90
12700;DHT22;6414;49.570;6.060;2023-08-20T13:02:57;26.80;99.90
12700;DHT22;6414;49.570;6.060;2023-08-20T13:05:43;26.80;99.90
12700;DHT22;6414;49.570;6.060;2023-08-20T13:08:29;26.70;99.90
12700;DHT22;6414;49.570;6.060;2023-08-20T13:11:16;26.80;99.90
12700;DHT22;6414;49.570;6.060;2023-08-20T13:14:02;26.90;99.90
12700;DHT22;6414;49.570;6.060;2023-08-20T13:16:48;26.80;99.90
12700;DHT22;6414;49.570;6.060;2023-08-20T13:19:34;27.00;99.90
12700;DHT22;6414;49.570;6.060;2023-08-20T13:22:20;27.00;99.90
12700;DHT22;6414;49.570;6.060;2023-08-20T13:25:07;26.80;99.90
12700;DHT22;6414;49.570;6.060;2023-08-20T13:27:53;26.80;99.90
12700;DHT22;6414;49.570;6.060;2023-08-20T13:30:39;26.80;99.90
12700;DHT22;6414;49.570;6.060;2023-08-20T13:33:26;26.80;99.90
12700;DHT22;6414;49.570;6.060;2023-08-20T13:36:12;27.00;99.90
12700;DHT22;6414;49.570;6.060;2023-08-20T13:38:58;27.00;99.90
12700;DHT22;6414;49.570;6.060;2023-08-20T13:41:45;27.00;99.90
12700;DHT22;6414;49.570;6.060;2023-08-20T13:44:31;27.00;99.90
12700;DHT22;6414;49.570;6.060;2023-08-20T13:47:18;27.10;99.90
12700;DHT22;6414;49.570;6.060;2023-08-20T13:50:04;27.10;99.90
12700;DHT22;6414;49.570;6.060;2023-08-20T13:52:49;27.10;99.90
12700;DHT22;6414;49.570;6.060;2023-08-20T13:55:36;27.20;99.90
12700;DHT22;6414;49.570;6.060;2023-08-20T13:58:22;27.30;99.90
12700;DHT22;6414;49.570;6.060;2023-08-20T14:01:08;27.20;99.90
12700;DHT22;6414;49.570;6.060;2023-08-20T14:03:54;27.10;99.90
12700;DHT22;6414;49.570;6.060;2023-08-20T14:06:40;27.10;99.90
12700;DHT22;6414;49.570;6.060;2023-08-20T14:09:26;27.10;99.90
12700;DHT22;6414;49.570;6.060;2023-08-20T14:12:12;27.10;99.90
12700;DHT22;6414;49.570;6.060;2023-08-20T14:14:58;27.00;99.90
12700;DHT22;6414;49.570;6.060;2023-08-20T14:17:45;27.00;99.90
12700;DHT22;6414;49.570;6.060;2023-08-20T14:20:31;27.00;99.90
12700;DHT22;6414;49.570;6.060;2023-08-20T14:23:17;26.90;99.90
12700;DHT22;6414;49.570;6.060;2023-08-20T14:26:03;27.00;99.90
12700;DHT22;6414;49.570;6.060;2023-08-20T14:28:50;27.00;99.90
12700;DHT22;6414;49.570;6.060;2023-08-20T14:31:35;27.00;99.90
12700;DHT22;6414;49.570;6.060;2023-08-20T14:34:21;27.00;99.90
12700;DHT22;6414;49.570;6.060;2023-08-20T14:37:07;26.90;99.90
12700;DHT22;6414;49.570;6.060;2023-08-20T14:39:53;26.80;99.90
12700;DHT22;6414;49.570;6.060;2023-08-20T14:42:39;27.00;99.90
12700;DHT22;6414;49.570;6.060;2023-08-20T14:45:26;27.10;99.90
12700;DHT22;6414;49.570;6.060;2023-08-20T14:48:12;26.90;99.90
12700;DHT22;6414;49.570;6.060;2023-08-20T14:50:58;26.90;99.90
12700;DHT22;6414;49.570;6.060;2023-08-20T14:53:44;27.00;99.90
12700;DHT22;6414;49.570;6.060;2023-08-20T14:56:30;27.00;99.90
12700;DHT22;6414;49.570;6.060;2023-08-20T14:59:16;26.80;99.90
12700;DHT22;6414;49.570;6.060;2023-08-20T15:02:02;26.90;99.90
12700;DHT22;6414;49.570;6.060;2023-08-20T15:04:48;27.20;99.90
12700;DHT22;6414;49.570;6.060;2023-08-20T15:07:34;27.20;99.90
12700;DHT22;6414;49.570;6.060;2023-08-20T15:10:20;27.10;99.90
12700;DHT22;6414;49.570;6.060;2023-08-20T15:13:07;27.00;99.90
12700;DHT22;6414;49.570;6.060;2023-08-20T15:15:53;26.90;99.90
12700;DHT22;6414;49.570;6.060;2023-08-20T15:18:39;27.10;99.90
12700;DHT22;6414;49.570;6.060;2023-08-20T15:21:25;27.10;99.90
12700;DHT22;6414;49.570;6.060;2023-08-20T15:24:12;27.10;99.90
12700;DHT22;6414;49.570;6.060;2023-08-20T15:26:57;27.00;99.90
12700;DHT22;6414;49.570;6.060;2023-08-20T15:29:44;27.00;99.90
12700;DHT22;6414;49.570;6.060;2023-08-20T15:32:30;26.90;99.90
12700;DHT22;6414;49.570;6.060;2023-08-20T15:35:17;27.00;99.90
12700;DHT22;6414;49.570;6.060;2023-08-20T15:38:03;26.90;99.90
12700;DHT22;6414;49.570;6.060;2023-08-20T15:40:49;27.00;99.90
12700;DHT22;6414;49.570;6.060;2023-08-20T15:43:36;27.00;99.90
12700;DHT22;6414;49.570;6.060;2023-08-20T15:46:22;27.00;99.90
12700;DHT22;6414;49.570;6.060;2023-08-20T15:49:09;27.20;99.90
12700;DHT22;6414;49.570;6.060;2023-08-20T15:51:55;27.10;99.90
12700;DHT22;6414;49.570;6.060;2023-08-20T15:54:41;27.00;99.90
12700;DHT22;6414;49.570;6.060;2023-08-20T15:57:28;26.20;99.90
12700;DHT22;6414;49.570;6.060;2023-08-20T16:00:15;26.20;99.90
12700;DHT22;6414;49.570;6.060;2023-08-20T16:03:01;25.90;99.90
12700;DHT22;6414;49.570;6.060;2023-08-20T16:05:48;26.10;99.90
12700;DHT22;6414;49.570;6.060;2023-08-20T16:08:34;26.40;99.90
12700;DHT22;6414;49.570;6.060;2023-08-20T16:11:20;26.40;99.90
12700;DHT22;6414;49.570;6.060;2023-08-20T16:14:07;26.70;99.90
12700;DHT22;6414;49.570;6.060;2023-08-20T16:16:53;26.70;99.90
12700;DHT22;6414;49.570;6.060;2023-08-20T16:19:39;26.70;99.90
12700;DHT22;6414;49.570;6.060;2023-08-20T16:22:26;26.80;99.90
12700;DHT22;6414;49.570;6.060;2023-08-20T16:25:13;26.90;99.90
12700;DHT22;6414;49.570;6.060;2023-08-20T16:28:00;26.90;99.90
12700;DHT22;6414;49.570;6.060;2023-08-20T16:30:46;26.90;99.90
12700;DHT22;6414;49.570;6.060;2023-08-20T16:33:33;26.80;99.90
12700;DHT22;6414;49.570;6.060;2023-08-20T16:36:19;26.80;99.90
12700;DHT22;6414;49.570;6.060;2023-08-20T16:39:05;26.70;99.90
12700;DHT22;6414;49.570;6.060;2023-08-20T16:41:52;26.70;99.90
12700;DHT22;6414;49.570;6.060;2023-08-20T16:44:38;26.80;99.90
12700;DHT22;6414;49.570;6.060;2023-08-20T16:47:25;26.80;99.90
12700;DHT22;6414;49.570;6.060;2023-08-20T16:50:11;26.70;99.90
12700;DHT22;6414;49.570;6.060;2023-08-20T16:52:57;26.80;99.90
12700;DHT22;6414;49.570;6.060;2023-08-20T16:55:49;26.70;99.90
12700;DHT22;6414;49.570;6.060;2023-08-20T16:58:29;26.60;99.90
12700;DHT22;6414;49.570;6.060;2023-08-20T17:01:15;26.60;99.90
12700;DHT22;6414;49.570;6.060;2023-08-20T17:04:02;26.50;99.90
12700;DHT22;6414;49.570;6.060;2023-08-20T17:06:48;26.50;99.90
12700;DHT22;6414;49.570;6.060;2023-08-20T17:09:34;26.40;99.90
12700;DHT22;6414;49.570;6.060;2023-08-20T17:12:21;26.40;99.90
12700;DHT22;6414;49.570;6.060;2023-08-20T17:15:07;26.30;99.90
12700;DHT22;6414;49.570;6.060;2023-08-20T17:17:53;26.20;99.90
12700;DHT22;6414;49.570;6.060;2023-08-20T17:20:39;26.20;99.90
12700;DHT22;6414;49.570;6.060;2023-08-20T17:23:25;26.00;99.90
12700;DHT22;6414;49.570;6.060;2023-08-20T17:26:11;25.70;99.90
12700;DHT22;6414;49.570;6.060;2023-08-20T17:28:58;25.60;99.90
12700;DHT22;6414;49.570;6.060;2023-08-20T17:31:45;25.60;99.90
12700;DHT22;6414;49.570;6.060;2023-08-20T17:34:31;25.50;99.90
12700;DHT22;6414;49.570;6.060;2023-08-20T17:37:17;25.50;99.90
12700;DHT22;6414;49.570;6.060;2023-08-20T17:40:04;25.50;99.90
12700;DHT22;6414;49.570;6.060;2023-08-20T17:42:50;25.40;99.90
12700;DHT22;6414;49.570;6.060;2023-08-20T17:45:36;25.20;99.90
12700;DHT22;6414;49.570;6.060;2023-08-20T17:48:22;25.00;99.90
12700;DHT22;6414;49.570;6.060;2023-08-20T17:51:08;24.90;99.90
12700;DHT22;6414;49.570;6.060;2023-08-20T17:53:54;24.70;99.90
12700;DHT22;6414;49.570;6.060;2023-08-20T17:56:40;24.60;99.90
12700;DHT22;6414;49.570;6.060;2023-08-20T17:59:27;24.50;99.90